createdAt,value
2019-02-09T00:00:33.738Z,5.40
2019-02-09T00:03:02.428Z,5.60
2019-02-09T00:05:31.158Z,6.83
2019-02-09T00:07:59.716Z,5.80
2019-02-09T00:10:28.303Z,5.13
2019-02-09T00:12:56.927Z,5.90
2019-02-09T00:15:25.593Z,5.77
2019-02-09T00:17:54.145Z,11.30
2019-02-09T00:20:22.747Z,7.07
2019-02-09T00:22:51.440Z,8.47
2019-02-09T00:25:24.300Z,5.00
2019-02-09T00:27:52.924Z,5.07
2019-02-09T00:30:25.003Z,4.77
2019-02-09T00:32:53.628Z,4.20
2019-02-09T00:35:22.558Z,8.47
2019-02-09T00:37:51.175Z,5.80
2019-02-09T00:40:24.341Z,6.10
2019-02-09T00:42:52.970Z,6.27
2019-02-09T00:45:22.900Z,6.00
2019-02-09T00:47:51.533Z,12.53
2019-02-09T00:50:21.069Z,5.40
2019-02-09T00:52:49.760Z,7.17
2019-02-09T00:55:28.767Z,5.30
2019-02-09T00:57:57.461Z,5.10
2019-02-09T01:00:28.355Z,4.33
2019-02-09T01:02:57.047Z,5.20
2019-02-09T01:05:40.480Z,6.80
2019-02-09T01:08:09.364Z,5.60
2019-02-09T01:10:38.321Z,10.87
2019-02-09T01:13:07.009Z,5.27
2019-02-09T01:15:35.744Z,5.37
2019-02-09T01:18:04.446Z,8.27
2019-02-09T01:20:33.108Z,4.13
2019-02-09T01:23:01.800Z,5.73
2019-02-09T01:25:30.540Z,10.50
2019-02-09T01:27:59.231Z,7.47
2019-02-09T01:30:29.068Z,8.10
2019-02-09T01:32:57.866Z,6.53
2019-02-09T01:35:26.999Z,7.03
2019-02-09T01:37:55.688Z,7.67
2019-02-09T01:40:27.373Z,6.13
2019-02-09T01:42:56.173Z,9.27
2019-02-09T01:45:27.272Z,5.97
2019-02-09T01:47:55.816Z,9.30
2019-02-09T01:50:25.952Z,5.20
2019-02-09T01:52:54.644Z,5.50
2019-02-09T01:55:23.315Z,6.37
2019-02-09T01:57:51.945Z,5.17
2019-02-09T02:00:22.881Z,6.37
2019-02-09T02:02:51.877Z,8.30
2019-02-09T02:05:21.916Z,8.27
2019-02-09T02:07:50.527Z,6.47
2019-02-09T02:10:24.678Z,8.03
2019-02-09T02:12:53.392Z,5.40
2019-02-09T02:15:22.119Z,5.43
2019-02-09T02:17:50.907Z,5.10
2019-02-09T02:20:24.880Z,6.23
2019-02-09T02:22:53.499Z,6.43
2019-02-09T02:25:23.697Z,7.03
2019-02-09T02:27:52.460Z,5.70
2019-02-09T02:30:29.091Z,6.47
2019-02-09T02:32:57.775Z,4.77
2019-02-09T02:35:26.540Z,4.07
2019-02-09T02:37:55.227Z,9.53
2019-02-09T02:40:24.124Z,8.27
2019-02-09T02:42:52.957Z,7.27
2019-02-09T02:45:25.326Z,7.53
2019-02-09T02:47:54.013Z,8.47
2019-02-09T02:50:24.770Z,4.77
2019-02-09T02:52:53.437Z,4.13
2019-02-09T02:55:33.008Z,6.60
2019-02-09T02:58:01.563Z,5.80
2019-02-09T03:00:34.824Z,11.00
2019-02-09T03:03:03.655Z,10.33
2019-02-09T03:05:32.383Z,5.60
2019-02-09T03:08:01.699Z,9.33
2019-02-09T03:10:30.252Z,4.57
2019-02-09T03:12:58.972Z,6.87
2019-02-09T03:15:30.134Z,7.63
2019-02-09T03:17:59.063Z,7.93
2019-02-09T03:20:27.758Z,6.67
2019-02-09T03:22:56.494Z,5.60
2019-02-09T03:25:30.619Z,9.23
2019-02-09T03:27:59.284Z,6.53
2019-02-09T03:30:27.989Z,5.70
2019-02-09T03:32:56.916Z,7.80
2019-02-09T03:35:25.808Z,6.93
2019-02-09T03:37:54.391Z,6.27
2019-02-09T03:40:24.698Z,9.63
2019-02-09T03:42:53.352Z,6.30
2019-02-09T03:45:33.050Z,6.50
2019-02-09T03:48:02.243Z,6.03
2019-02-09T03:50:33.643Z,5.93
2019-02-09T03:53:02.483Z,7.70
2019-02-09T03:55:31.294Z,8.83
2019-02-09T03:57:59.958Z,6.13
2019-02-09T04:00:30.928Z,8.93
2019-02-09T04:03:00.869Z,9.33
2019-02-09T04:05:29.563Z,9.20
2019-02-09T04:07:58.217Z,6.37
2019-02-09T04:10:27.804Z,6.77
2019-02-09T04:12:56.408Z,9.63
2019-02-09T04:15:26.206Z,5.20
2019-02-09T04:17:55.637Z,7.83
2019-02-09T04:20:25.333Z,6.57
2019-02-09T04:22:54.199Z,6.97
2019-02-09T04:25:23.759Z,4.47
2019-02-09T04:27:52.492Z,4.43
2019-02-09T04:30:22.996Z,7.37
2019-02-09T04:32:51.648Z,4.90
2019-02-09T04:35:21.244Z,8.33
2019-02-09T04:37:49.973Z,5.43
2019-02-09T04:40:20.768Z,9.07
2019-02-09T04:42:49.533Z,9.07
2019-02-09T04:45:18.636Z,9.07
2019-02-09T04:47:47.303Z,7.30
2019-02-09T04:50:17.387Z,9.80
2019-02-09T04:52:46.064Z,7.20
2019-02-09T04:55:20.044Z,7.77
2019-02-09T04:57:48.876Z,8.43
2019-02-09T05:00:19.831Z,8.37
2019-02-09T05:02:48.508Z,8.37
2019-02-09T05:05:17.200Z,5.67
2019-02-09T05:07:45.889Z,4.33
2019-02-09T05:10:16.678Z,4.07
2019-02-09T05:12:45.339Z,4.67
2019-02-09T05:15:16.132Z,5.10
2019-02-09T05:17:44.868Z,4.97
2019-02-09T05:20:15.928Z,5.67
2019-02-09T05:22:44.867Z,7.70
2019-02-09T05:25:14.965Z,5.00
2019-02-09T05:27:43.884Z,4.83
2019-02-09T05:30:15.238Z,4.27
2019-02-09T05:32:43.910Z,9.33
2019-02-09T05:35:12.698Z,3.33
2019-02-09T05:37:41.292Z,4.00
2019-02-09T05:40:12.883Z,4.33
2019-02-09T05:42:41.580Z,4.70
2019-02-09T05:45:15.939Z,3.47
2019-02-09T05:47:44.605Z,5.00
2019-02-09T05:50:15.513Z,5.33
2019-02-09T05:52:44.119Z,3.57
2019-02-09T05:55:12.847Z,7.07
2019-02-09T05:57:41.547Z,6.67
2019-02-09T06:00:23.310Z,2.37
2019-02-09T06:02:51.905Z,2.57
2019-02-09T06:05:20.600Z,2.83
2019-02-09T06:07:49.539Z,2.93
2019-02-09T06:10:18.882Z,3.17
2019-02-09T06:12:47.669Z,6.47
2019-02-09T06:15:21.784Z,6.50
2019-02-09T06:17:50.502Z,5.20
2019-02-09T06:20:21.639Z,6.27
2019-02-09T06:22:50.255Z,6.63
2019-02-09T06:25:18.993Z,3.87
2019-02-09T06:27:47.723Z,7.87
2019-02-09T06:30:19.623Z,6.63
2019-02-09T06:32:48.248Z,6.53
2019-02-09T06:35:16.915Z,6.83
2019-02-09T06:37:45.539Z,7.37
2019-02-09T06:40:16.172Z,6.10
2019-02-09T06:42:44.728Z,6.20
2019-02-09T06:45:19.291Z,5.13
2019-02-09T06:47:47.988Z,4.07
2019-02-09T06:50:19.223Z,9.57
2019-02-09T06:52:47.851Z,9.37
2019-02-09T06:55:17.475Z,7.33
2019-02-09T06:57:46.029Z,7.43
2019-02-09T07:00:23.548Z,8.93
2019-02-09T07:02:52.239Z,7.83
2019-02-09T07:05:21.469Z,6.67
2019-02-09T07:07:50.284Z,13.13
2019-02-09T07:10:21.590Z,9.13
2019-02-09T07:12:50.280Z,9.90
2019-02-09T07:15:21.946Z,13.73
2019-02-09T07:17:50.642Z,8.70
2019-02-09T07:20:19.304Z,6.93
2019-02-09T07:22:47.851Z,9.27
2019-02-09T07:25:17.192Z,12.80
2019-02-09T07:27:45.893Z,9.70
2019-02-09T07:30:29.551Z,11.60
2019-02-09T07:32:59.053Z,9.83
2019-02-09T07:35:27.713Z,12.13
2019-02-09T07:37:56.406Z,10.23
2019-02-09T07:40:28.017Z,8.87
2019-02-09T07:42:56.647Z,10.80
2019-02-09T07:45:27.192Z,9.47
2019-02-09T07:47:56.277Z,10.37
2019-02-09T07:50:26.813Z,11.57
2019-02-09T07:52:55.433Z,11.67
2019-02-09T07:55:24.762Z,9.30
2019-02-09T07:57:53.390Z,7.80
2019-02-09T08:00:32.522Z,7.80
2019-02-09T08:03:01.417Z,8.97
2019-02-09T08:05:31.565Z,13.53
2019-02-09T08:08:00.500Z,11.23
2019-02-09T08:10:39.199Z,14.07
2019-02-09T08:13:08.962Z,10.87
2019-02-09T08:15:37.721Z,8.10
2019-02-09T08:18:07.808Z,10.23
2019-02-09T08:20:36.557Z,11.70
2019-02-09T08:23:07.912Z,16.33
2019-02-09T08:25:40.402Z,11.03
2019-02-09T08:28:13.557Z,9.93
2019-02-09T08:30:44.397Z,11.50
2019-02-09T08:33:13.080Z,8.80
2019-02-09T08:35:41.681Z,7.90
2019-02-09T08:38:11.281Z,7.40
2019-02-09T08:40:40.014Z,6.20
2019-02-09T08:43:08.644Z,7.17
2019-02-09T08:45:37.386Z,8.73
2019-02-09T08:48:06.181Z,8.07
2019-02-09T08:50:37.588Z,8.70
2019-02-09T08:53:06.279Z,10.67
2019-02-09T08:55:34.955Z,13.40
2019-02-09T08:58:03.832Z,9.97
2019-02-09T09:00:35.517Z,7.53
2019-02-09T09:03:04.815Z,12.63
2019-02-09T09:05:33.737Z,10.57
2019-02-09T09:08:02.535Z,9.23
2019-02-09T09:10:31.976Z,8.73
2019-02-09T09:13:01.176Z,10.30
2019-02-09T09:15:35.509Z,11.03
2019-02-09T09:18:04.505Z,10.93
2019-02-09T09:20:41.591Z,11.17
2019-02-09T09:23:10.214Z,10.70
2019-02-09T09:25:38.832Z,15.27
2019-02-09T09:28:07.530Z,12.73
2019-02-09T09:30:36.211Z,10.20
2019-02-09T09:33:05.007Z,14.20
2019-02-09T09:35:33.604Z,13.73
2019-02-09T09:38:02.232Z,10.40
2019-02-09T09:40:36.603Z,12.23
2019-02-09T09:43:05.894Z,11.07
2019-02-09T09:45:39.893Z,13.47
2019-02-09T09:48:10.793Z,15.40
2019-02-09T09:50:39.648Z,11.87
2019-02-09T09:53:08.339Z,10.63
2019-02-09T09:55:37.035Z,14.00
2019-02-09T09:58:06.024Z,15.53
2019-02-09T10:00:34.787Z,10.67
2019-02-09T10:03:03.404Z,11.00
2019-02-09T10:05:32.155Z,15.07
2019-02-09T10:08:00.715Z,19.57
2019-02-09T10:10:29.336Z,19.37
2019-02-09T10:12:57.885Z,13.47
2019-02-09T10:15:29.412Z,11.60
2019-02-09T10:17:58.054Z,12.47
2019-02-09T10:20:27.611Z,11.77
2019-02-09T10:22:56.304Z,15.53
2019-02-09T10:25:25.085Z,12.63
2019-02-09T10:27:56.024Z,11.77
2019-02-09T10:30:35.555Z,11.00
2019-02-09T10:33:04.279Z,17.50
2019-02-09T10:35:32.964Z,9.70
2019-02-09T10:38:01.520Z,11.27
2019-02-09T10:40:32.814Z,13.50
2019-02-09T10:43:01.708Z,12.20
2019-02-09T10:45:31.479Z,10.00
2019-02-09T10:48:01.673Z,10.00
2019-02-09T10:50:32.892Z,6.77
2019-02-09T10:53:01.615Z,9.13
2019-02-09T10:55:30.468Z,9.53
2019-02-09T10:57:59.099Z,14.13
2019-02-09T11:00:36.334Z,12.97
2019-02-09T11:03:06.431Z,8.90
2019-02-09T11:05:35.288Z,7.73
2019-02-09T11:08:05.156Z,8.77
2019-02-09T11:10:33.944Z,6.43
2019-02-09T11:13:02.635Z,10.07
2019-02-09T11:15:31.925Z,9.50
2019-02-09T11:18:00.553Z,10.63
2019-02-09T11:20:29.251Z,9.53
2019-02-09T11:22:57.808Z,12.23
2019-02-09T11:25:26.504Z,13.00
2019-02-09T11:27:55.196Z,11.33
2019-02-09T11:30:28.528Z,14.57
2019-02-09T11:33:01.947Z,12.00
2019-02-09T11:35:27.501Z,13.93
2019-02-09T11:37:56.116Z,15.60
2019-02-09T11:40:32.939Z,17.07
2019-02-09T11:43:02.007Z,14.50
2019-02-09T11:45:32.195Z,12.30
2019-02-09T11:48:01.131Z,14.40
2019-02-09T11:50:29.756Z,17.23
2019-02-09T11:52:59.359Z,12.97
2019-02-09T11:55:27.846Z,11.80
2019-02-09T11:57:56.543Z,13.53
2019-02-09T12:00:33.056Z,10.80
2019-02-09T12:03:05.563Z,13.33
2019-02-09T12:05:32.119Z,8.17
2019-02-09T12:08:00.799Z,7.57
2019-02-09T12:10:29.990Z,14.33
2019-02-09T12:12:58.613Z,14.83
2019-02-09T12:15:31.996Z,8.80
2019-02-09T12:18:00.682Z,9.93
2019-02-09T12:20:29.371Z,8.97
2019-02-09T12:22:58.064Z,4.70
2019-02-09T12:25:37.980Z,10.00
2019-02-09T12:28:11.931Z,6.77
2019-02-09T12:30:41.320Z,11.87
2019-02-09T12:33:13.510Z,9.60
2019-02-09T12:35:43.741Z,9.47
2019-02-09T12:38:12.622Z,8.57
2019-02-09T12:40:41.316Z,6.97
2019-02-09T12:43:10.089Z,12.13
2019-02-09T12:45:40.660Z,7.60
2019-02-09T12:48:11.013Z,5.40
2019-02-09T12:50:39.892Z,7.27
2019-02-09T12:53:08.661Z,8.90
2019-02-09T12:55:37.291Z,6.90
2019-02-09T12:58:06.467Z,7.63
2019-02-09T13:00:37.439Z,6.83
2019-02-09T13:03:17.708Z,9.10
2019-02-09T13:05:46.323Z,7.27
2019-02-09T13:08:15.190Z,9.37
2019-02-09T13:10:43.739Z,3.50
2019-02-09T13:13:12.359Z,6.30
2019-02-09T13:15:41.080Z,6.43
2019-02-09T13:18:09.838Z,6.37
2019-02-09T13:20:38.461Z,5.37
2019-02-09T13:23:08.532Z,4.53
2019-02-09T13:25:37.154Z,6.20
2019-02-09T13:28:06.107Z,4.33
2019-02-09T13:30:40.062Z,8.83
2019-02-09T13:33:08.755Z,8.07
2019-02-09T13:35:37.441Z,7.13
2019-02-09T13:38:06.123Z,6.80
2019-02-09T13:40:34.896Z,6.30
2019-02-09T13:43:03.672Z,8.00
2019-02-09T13:45:43.618Z,16.43
2019-02-09T13:48:12.300Z,15.30
2019-02-09T13:50:41.063Z,10.07
2019-02-09T13:53:09.950Z,13.97
2019-02-09T13:55:38.645Z,8.97
2019-02-09T13:58:07.281Z,10.50
2019-02-09T14:00:36.053Z,11.77
2019-02-09T14:03:06.344Z,7.87
2019-02-09T14:05:35.027Z,9.97
2019-02-09T14:08:04.320Z,9.53
2019-02-09T14:10:33.080Z,10.20
2019-02-09T14:13:01.635Z,9.00
2019-02-09T14:15:35.212Z,8.80
2019-02-09T14:18:06.068Z,13.67
2019-02-09T14:20:34.697Z,11.37
2019-02-09T14:23:03.399Z,10.10
2019-02-09T14:25:32.020Z,14.27
2019-02-09T14:28:01.584Z,10.27
2019-02-09T14:30:32.816Z,11.83
2019-02-09T14:33:01.804Z,14.80
2019-02-09T14:35:30.564Z,9.53
2019-02-09T14:37:59.254Z,14.77
2019-02-09T14:40:30.011Z,12.43
2019-02-09T14:42:58.636Z,11.90
2019-02-09T14:45:30.338Z,16.47
2019-02-09T14:47:58.960Z,7.00
2019-02-09T14:50:27.670Z,15.17
2019-02-09T14:52:56.223Z,9.57
2019-02-09T14:55:30.528Z,10.50
2019-02-09T14:57:59.222Z,10.37
2019-02-09T15:00:30.644Z,11.83
2019-02-09T15:02:59.269Z,14.53
2019-02-09T15:05:27.965Z,11.67
2019-02-09T15:07:56.517Z,10.47
2019-02-09T15:10:25.279Z,13.80
2019-02-09T15:12:53.892Z,9.57
2019-02-09T15:15:40.236Z,17.93
2019-02-09T15:18:10.423Z,15.93
2019-02-09T15:20:44.667Z,14.17
2019-02-09T15:23:13.298Z,11.47
2019-02-09T15:25:42.059Z,17.97
2019-02-09T15:28:12.595Z,16.57
2019-02-09T15:30:41.045Z,11.07
2019-02-09T15:33:09.731Z,18.93
2019-02-09T15:35:38.356Z,11.43
2019-02-09T15:38:07.049Z,10.10
2019-02-09T15:40:35.672Z,22.77
2019-02-09T15:43:04.465Z,10.10
2019-02-09T15:45:33.228Z,12.87
2019-02-09T15:48:01.781Z,18.57
2019-02-09T15:50:30.471Z,15.23
2019-02-09T15:52:59.196Z,14.90
2019-02-09T15:55:27.883Z,14.57
2019-02-09T15:57:56.504Z,13.53
2019-02-09T16:00:28.204Z,10.67
2019-02-09T16:02:58.697Z,11.73
2019-02-09T16:05:27.463Z,10.40
2019-02-09T16:07:56.262Z,28.27
2019-02-09T16:10:25.619Z,12.20
2019-02-09T16:12:54.173Z,15.23
2019-02-09T16:15:30.825Z,13.53
2019-02-09T16:17:59.374Z,10.50
2019-02-09T16:20:31.076Z,17.23
2019-02-09T16:22:59.697Z,11.43
2019-02-09T16:25:28.464Z,11.60
2019-02-09T16:27:57.029Z,15.10
2019-02-09T16:30:26.993Z,15.40
2019-02-09T16:32:55.811Z,12.40
2019-02-09T16:35:25.872Z,19.43
2019-02-09T16:37:54.663Z,11.27
2019-02-09T16:40:27.957Z,14.70
2019-02-09T16:42:56.592Z,11.10
2019-02-09T16:45:36.384Z,11.53
2019-02-09T16:48:07.481Z,11.70
2019-02-09T16:50:36.182Z,10.50
2019-02-09T16:53:05.584Z,11.07
2019-02-09T16:55:34.507Z,8.37
2019-02-09T16:58:03.130Z,10.23
2019-02-09T17:00:40.277Z,5.67
2019-02-09T17:03:10.459Z,9.93
2019-02-09T17:05:39.444Z,8.50
2019-02-09T17:08:08.137Z,22.87
2019-02-09T17:10:36.828Z,11.73
2019-02-09T17:13:06.526Z,8.10
2019-02-09T17:15:35.151Z,11.10
2019-02-09T17:18:04.638Z,6.20
2019-02-09T17:20:33.181Z,8.53
2019-02-09T17:23:01.796Z,11.17
2019-02-09T17:25:30.349Z,8.93
2019-02-09T17:27:58.976Z,9.37
2019-02-09T17:30:32.522Z,10.40
2019-02-09T17:33:01.221Z,13.13
2019-02-09T17:35:29.840Z,11.23
2019-02-09T17:37:58.532Z,9.07
2019-02-09T17:40:29.424Z,11.47
2019-02-09T17:42:58.120Z,10.83
2019-02-09T17:45:29.416Z,10.57
2019-02-09T17:47:58.117Z,10.70
2019-02-09T17:50:26.681Z,12.33
2019-02-09T17:52:55.308Z,11.73
2019-02-09T17:55:23.867Z,13.90
2019-02-09T17:57:52.569Z,11.00
2019-02-09T18:00:25.169Z,13.17
2019-02-09T18:02:53.801Z,10.77
2019-02-09T18:05:22.428Z,9.00
2019-02-09T18:07:51.120Z,15.23
2019-02-09T18:10:19.908Z,15.10
2019-02-09T18:12:48.541Z,11.87
2019-02-09T18:15:20.751Z,14.13
2019-02-09T18:17:49.447Z,15.83
2019-02-09T18:20:18.744Z,13.40
2019-02-09T18:22:47.440Z,12.37
2019-02-09T18:25:23.110Z,15.03
2019-02-09T18:27:51.875Z,18.83
2019-02-09T18:30:28.794Z,16.33
2019-02-09T18:32:57.556Z,21.37
2019-02-09T18:35:26.184Z,19.37
2019-02-09T18:37:54.816Z,14.00
2019-02-09T18:40:24.708Z,14.73
2019-02-09T18:42:53.980Z,19.33
2019-02-09T18:45:30.592Z,14.83
2019-02-09T18:47:59.496Z,11.10
2019-02-09T18:50:32.118Z,17.40
2019-02-09T18:53:01.989Z,21.83
2019-02-09T18:55:31.180Z,18.03
2019-02-09T18:58:00.220Z,15.30
2019-02-09T19:00:31.481Z,15.53
2019-02-09T19:03:00.852Z,21.23
2019-02-09T19:05:29.481Z,19.60
2019-02-09T19:07:58.251Z,13.27
2019-02-09T19:10:28.150Z,19.70
2019-02-09T19:12:57.112Z,19.87
2019-02-09T19:15:27.306Z,18.70
2019-02-09T19:17:57.077Z,15.40
2019-02-09T19:20:40.088Z,15.20
2019-02-09T19:23:08.859Z,13.13
2019-02-09T19:25:37.553Z,17.47
2019-02-09T19:28:06.618Z,17.70
2019-02-09T19:30:35.487Z,14.07
2019-02-09T19:33:05.061Z,19.40
2019-02-09T19:35:33.685Z,11.20
2019-02-09T19:38:02.321Z,16.47
2019-02-09T19:40:37.635Z,12.37
2019-02-09T19:43:02.189Z,18.67
2019-02-09T19:45:35.980Z,13.63
2019-02-09T19:48:05.896Z,16.30
2019-02-09T19:50:34.519Z,17.67
2019-02-09T19:53:03.280Z,16.00
2019-02-09T19:55:33.072Z,17.50
2019-02-09T19:58:01.703Z,16.67
2019-02-09T20:00:32.608Z,18.43
2019-02-09T20:03:01.236Z,18.90
2019-02-09T20:05:29.784Z,14.97
2019-02-09T20:07:58.413Z,17.43
2019-02-09T20:10:32.786Z,21.13
2019-02-09T20:13:01.585Z,15.57
2019-02-09T20:15:30.272Z,18.47
2019-02-09T20:17:58.970Z,17.93
2019-02-09T20:20:27.521Z,13.60
2019-02-09T20:22:56.222Z,21.10
2019-02-09T20:25:26.421Z,18.37
2019-02-09T20:27:55.287Z,19.97
2019-02-09T20:30:29.001Z,16.83
2019-02-09T20:32:57.876Z,22.90
2019-02-09T20:35:28.009Z,21.00
2019-02-09T20:37:56.941Z,14.87
2019-02-09T20:40:47.768Z,20.63
2019-02-09T20:43:18.964Z,24.80
2019-02-09T20:45:47.851Z,14.83
2019-02-09T20:48:16.481Z,19.60
2019-02-09T20:50:45.101Z,18.67
2019-02-09T20:53:13.872Z,15.97
2019-02-09T20:55:42.696Z,17.97
2019-02-09T20:58:12.156Z,15.03
2019-02-09T21:00:40.784Z,17.00
2019-02-09T21:03:09.564Z,53.93
2019-02-09T21:05:38.123Z,31.70
2019-02-09T21:08:07.098Z,26.93
2019-02-09T21:10:38.171Z,28.93
2019-02-09T21:13:07.244Z,18.67
2019-02-09T21:15:36.144Z,13.10
2019-02-09T21:18:06.335Z,19.33
2019-02-09T21:20:35.033Z,13.77
2019-02-09T21:23:03.739Z,13.23
2019-02-09T21:25:37.786Z,13.87
2019-02-09T21:28:06.737Z,13.50
2019-02-09T21:30:35.462Z,14.67
2019-02-09T21:33:04.617Z,13.07
2019-02-09T21:35:33.241Z,13.67
2019-02-09T21:38:01.867Z,16.23
2019-02-09T21:40:31.461Z,11.77
2019-02-09T21:43:00.532Z,16.77
2019-02-09T21:45:29.430Z,14.77
2019-02-09T21:47:58.124Z,21.37
2019-02-09T21:50:31.867Z,15.07
2019-02-09T21:53:00.560Z,16.90
2019-02-09T21:55:29.255Z,15.80
2019-02-09T21:57:57.943Z,14.60
2019-02-09T22:00:36.910Z,16.87
2019-02-09T22:03:07.288Z,17.33
2019-02-09T22:05:36.079Z,11.67
2019-02-09T22:08:08.473Z,25.47
2019-02-09T22:10:37.164Z,13.33
2019-02-09T22:13:05.939Z,15.93
2019-02-09T22:15:38.804Z,19.67
2019-02-09T22:18:05.739Z,17.87
2019-02-09T22:20:34.457Z,15.90
2019-02-09T22:23:03.084Z,15.07
2019-02-09T22:25:31.647Z,17.67
2019-02-09T22:28:00.271Z,18.17
2019-02-09T22:30:32.923Z,13.13
2019-02-09T22:33:01.916Z,18.23
2019-02-09T22:35:30.652Z,18.57
2019-02-09T22:37:59.712Z,11.93
2019-02-09T22:40:36.785Z,15.27
2019-02-09T22:43:06.232Z,15.10
2019-02-09T22:45:35.066Z,18.33
2019-02-09T22:48:04.820Z,16.07
2019-02-09T22:50:36.189Z,14.30
2019-02-09T22:53:06.055Z,18.90
2019-02-09T22:55:34.675Z,15.20
2019-02-09T22:58:03.665Z,17.10
2019-02-09T23:00:51.705Z,13.90
2019-02-09T23:03:23.224Z,17.00
2019-02-09T23:06:14.324Z,18.27
2019-02-09T23:08:51.125Z,14.67
2019-02-09T23:11:19.823Z,17.17
2019-02-09T23:13:48.424Z,15.43
2019-02-09T23:16:16.979Z,9.23
2019-02-09T23:18:45.576Z,16.90
2019-02-09T23:21:14.133Z,13.67
2019-02-09T23:23:42.727Z,14.23
2019-02-09T23:26:11.287Z,16.83
2019-02-09T23:28:39.954Z,17.87
2019-02-09T23:31:08.663Z,20.73
2019-02-09T23:33:37.265Z,12.53
2019-02-09T23:36:05.824Z,12.50
2019-02-09T23:38:34.426Z,19.73
2019-02-09T23:41:02.986Z,21.80
2019-02-09T23:43:31.577Z,21.10
2019-02-09T23:46:00.131Z,20.33
2019-02-09T23:48:28.731Z,17.30
2019-02-09T23:50:57.285Z,11.00
2019-02-09T23:53:25.883Z,19.37
2019-02-09T23:55:54.435Z,14.53
2019-02-09T23:58:23.032Z,20.73
